Time;durP1;ratioP1;P1;durP2;ratioP2;P2;SDS_P1;SDS_P2;PMS_P1;PMS_P2;Temp;Humidity;BMP_temperature;BMP_pressure;BME280_temperature;BME280_humidity;BME280_pressure;Samples;Min_cycle;Max_cycle;Signal;HPM_P1;HPM_P2
2022/06/15 00:01:13;;;;;;;6.35;1.60;;;;;;;15.08;67.65;101593.94;4943652;28;20031;-72
2022/06/15 00:03:40;;;;;;;7.70;2.00;;;;;;;15.05;68.02;101600.31;4945576;28;20050;-72
2022/06/15 00:06:15;;;;;;;3.38;1.60;;;;;;;14.98;68.20;101583.69;4945411;28;20047;-72
2022/06/15 00:08:43;;;;;;;12.60;1.92;;;;;;;14.93;68.60;101586.78;4944189;28;20038;-72
2022/06/15 00:11:12;;;;;;;7.03;1.80;;;;;;;14.91;68.63;101583.50;4927295;28;20043;-72
2022/06/15 00:13:38;;;;;;;5.30;2.20;;;;;;;14.90;68.48;101575.84;4947140;28;20071;-72
2022/06/15 00:16:05;;;;;;;4.57;1.60;;;;;;;14.88;68.37;101569.97;4944161;28;20093;-71
2022/06/15 00:18:32;;;;;;;6.80;2.15;;;;;;;14.84;68.68;101577.31;4947175;28;20117;-72
2022/06/15 00:20:58;;;;;;;5.75;1.88;;;;;;;14.81;68.66;101575.06;4946236;28;20118;-71
2022/06/15 00:23:26;;;;;;;4.07;2.25;;;;;;;14.78;68.73;101572.75;4943720;28;20035;-72
2022/06/15 00:25:52;;;;;;;5.43;2.17;;;;;;;14.75;68.72;101581.75;4944777;28;20542;-71
2022/06/15 00:28:18;;;;;;;7.72;1.90;;;;;;;14.73;68.99;101580.25;4945358;28;20042;-72
2022/06/15 00:30:51;;;;;;;5.97;1.90;;;;;;;14.71;68.84;101579.63;4940533;28;20035;-72
2022/06/15 00:33:21;;;;;;;7.93;1.77;;;;;;;14.66;68.93;101592.34;4928744;28;20039;-71
2022/06/15 00:36:02;;;;;;;4.32;2.20;;;;;;;14.53;69.59;101588.41;4929077;28;20047;-72
2022/06/15 00:38:37;;;;;;;9.88;1.88;;;;;;;14.33;70.75;101587.06;4948127;28;20406;-72
2022/06/15 00:41:05;;;;;;;4.53;1.60;;;;;;;14.28;71.09;101581.53;4924849;28;20043;-71
2022/06/15 00:43:45;;;;;;;4.10;1.65;;;;;;;14.28;70.96;101582.34;4945543;28;20098;-72
2022/06/15 00:46:13;;;;;;;6.15;1.77;;;;;;;14.30;70.91;101576.97;4928163;29;20341;-72
2022/06/15 00:48:40;;;;;;;7.85;1.73;;;;;;;14.31;70.90;101576.78;4958801;28;20418;-72
2022/06/15 00:51:06;;;;;;;5.05;1.98;;;;;;;14.28;71.07;101571.09;4944270;28;20121;-72
2022/06/15 00:53:31;;;;;;;3.85;1.60;;;;;;;14.26;71.02;101570.44;4944895;28;20166;-72
2022/06/15 00:55:57;;;;;;;5.80;1.80;;;;;;;14.24;70.99;101569.78;4941942;28;20481;-72
2022/06/15 00:58:22;;;;;;;5.35;2.38;;;;;;;14.24;70.73;101572.38;4946630;28;20106;-72
2022/06/15 01:00:53;;;;;;;7.63;2.25;;;;;;;14.23;70.83;101568.97;4926375;28;20119;-72
2022/06/15 01:03:18;;;;;;;8.23;2.38;;;;;;;14.21;70.73;101563.09;4944817;28;20035;-72
2022/06/15 01:05:52;;;;;;;8.15;2.47;;;;;;;14.20;70.63;101569.28;4945035;28;20086;-72
2022/06/15 01:08:33;;;;;;;8.65;2.58;;;;;;;14.17;70.71;101570.44;4945014;28;20070;-72
2022/06/15 01:10:58;;;;;;;3.83;1.75;;;;;;;14.14;71.21;101568.13;4945015;28;20031;-72
2022/06/15 01:13:36;;;;;;;6.35;2.30;;;;;;;14.11;71.26;101570.25;4944303;28;20130;-72
2022/06/15 01:16:25;;;;;;;7.30;2.55;;;;;;;14.08;71.25;101563.56;4940832;28;20039;-72
2022/06/15 01:19:07;;;;;;;5.28;2.25;;;;;;;14.05;71.39;101560.47;4941307;28;20502;-72
2022/06/15 01:21:41;;;;;;;5.35;2.22;;;;;;;14.00;71.42;101566.97;4943826;28;20034;-72
2022/06/15 01:24:35;;;;;;;4.93;2.15;;;;;;;13.96;71.45;101578.72;4939402;28;20035;-72
2022/06/15 01:27:24;;;;;;;6.70;2.00;;;;;;;13.91;71.53;101570.53;4942983;28;20044;-72
2022/06/15 01:30:26;;;;;;;8.27;2.33;;;;;;;13.87;72.10;101571.84;4941282;28;20043;-72
2022/06/15 01:33:39;;;;;;;6.88;2.33;;;;;;;13.84;72.17;101572.16;4938729;28;20141;-72
2022/06/15 01:36:23;;;;;;;8.82;2.67;;;;;;;13.82;72.13;101571.50;4941831;28;21047;-72
2022/06/15 01:39:24;;;;;;;7.82;2.60;;;;;;;13.76;72.18;101561.69;4944928;28;20024;-72
2022/06/15 01:41:59;;;;;;;8.02;2.40;;;;;;;13.73;72.00;101565.44;4944605;28;20031;-72
2022/06/15 01:44:31;;;;;;;6.68;2.47;;;;;;;13.71;71.79;101561.34;4928635;29;20097;-72
2022/06/15 01:47:01;;;;;;;8.35;2.88;;;;;;;13.69;71.67;101563.31;4943277;28;20174;-72
2022/06/15 01:49:41;;;;;;;7.30;2.83;;;;;;;13.65;71.94;101562.00;4932771;29;20031;-72
2022/06/15 01:52:10;;;;;;;8.23;2.58;;;;;;;13.63;71.97;101560.34;4943971;28;20038;-72
2022/06/15 01:54:43;;;;;;;6.32;2.45;;;;;;;13.58;72.09;101562.63;4945881;28;20062;-72
2022/06/15 01:57:11;;;;;;;7.38;2.45;;;;;;;13.53;72.71;101554.47;4944540;28;20050;-72
2022/06/15 02:00:11;;;;;;;7.07;3.05;;;;;;;13.47;72.92;101555.09;4947508;28;20786;-72
2022/06/15 02:02:58;;;;;;;4.30;2.22;;;;;;;13.44;73.08;101552.78;4938499;28;20093;-72
2022/06/15 02:05:37;;;;;;;6.40;2.67;;;;;;;13.40;73.20;101549.69;4929788;29;20138;-72
2022/06/15 02:08:25;;;;;;;5.95;2.40;;;;;;;13.40;73.07;101551.47;4943579;28;20031;-72
2022/06/15 02:11:15;;;;;;;7.72;2.92;;;;;;;13.36;73.32;101555.38;4942334;28;20031;-72
2022/06/15 02:14:22;;;;;;;7.88;2.90;;;;;;;13.33;73.43;101546.06;4946842;28;20074;-72
2022/06/15 02:16:52;;;;;;;5.75;2.70;;;;;;;13.30;73.15;101543.78;4924082;28;20125;-72
2022/06/15 02:19:31;;;;;;;6.30;2.85;;;;;;;13.29;73.39;101544.72;4933898;28;20576;-72
2022/06/15 02:22:00;;;;;;;8.23;3.20;;;;;;;13.27;73.42;101545.84;4948419;28;20039;-72
2022/06/15 02:24:28;;;;;;;7.18;2.83;;;;;;;13.25;73.45;101548.59;4948037;28;20039;-72
2022/06/15 02:26:55;;;;;;;4.20;2.47;;;;;;;13.22;73.51;101546.31;4934042;28;20028;-72
2022/06/15 02:29:25;;;;;;;8.48;3.25;;;;;;;13.20;73.83;101543.88;4947385;28;20035;-72
2022/06/15 02:31:55;;;;;;;9.43;3.28;;;;;;;13.17;73.87;101536.38;4944993;28;20122;-72
2022/06/15 02:34:21;;;;;;;9.68;3.08;;;;;;;13.15;73.81;101537.50;4947658;28;20031;-72
2022/06/15 02:36:46;;;;;;;7.35;2.78;;;;;;;13.13;73.85;101545.47;4946303;28;20106;-72
2022/06/15 02:39:16;;;;;;;6.72;3.10;;;;;;;13.10;74.00;101545.75;4931517;28;20039;-72
2022/06/15 02:41:42;;;;;;;7.25;2.65;;;;;;;13.07;74.44;101543.44;4932463;28;20046;-72
2022/06/15 02:44:14;;;;;;;7.05;3.05;;;;;;;13.04;74.17;101541.19;4947327;28;20094;-72
2022/06/15 02:46:47;;;;;;;7.10;3.05;;;;;;;12.99;74.72;101541.63;4948589;28;20409;-71
2022/06/15 02:49:13;;;;;;;8.27;3.08;;;;;;;12.95;74.72;101540.28;4948232;28;20051;-72
2022/06/15 02:51:59;;;;;;;6.15;3.05;;;;;;;12.93;74.96;101539.63;4947728;28;20035;-72
2022/06/15 02:54:31;;;;;;;11.43;3.60;;;;;;;12.91;75.13;101535.56;4946545;28;20482;-72
2022/06/15 02:57:07;;;;;;;7.03;3.38;;;;;;;12.89;75.06;101529.69;4946133;28;20046;-72
2022/06/15 02:59:33;;;;;;;6.22;3.40;;;;;;;12.86;75.12;101528.19;4947592;28;20035;-72
2022/06/15 03:01:59;;;;;;;11.38;3.65;;;;;;;12.82;75.12;101527.69;4945013;28;20069;-72
2022/06/15 03:04:26;;;;;;;8.15;3.20;;;;;;;12.81;75.10;101528.66;4947165;28;20038;-72
2022/06/15 03:06:52;;;;;;;9.23;3.35;;;;;;;12.79;75.21;101533.22;4942862;28;20023;-72
2022/06/15 03:09:18;;;;;;;11.30;3.70;;;;;;;12.77;75.32;101532.56;4929935;28;20052;-72
2022/06/15 03:11:46;;;;;;;9.95;3.83;;;;;;;12.76;75.38;101527.50;4946164;28;20031;-71
2022/06/15 03:14:16;;;;;;;8.05;3.30;;;;;;;12.75;75.41;101533.66;4942957;28;20042;-72
2022/06/15 03:16:47;;;;;;;9.10;3.67;;;;;;;12.74;75.52;101532.03;4945759;28;20050;-72
2022/06/15 03:19:13;;;;;;;8.30;3.33;;;;;;;12.70;75.65;101535.91;4942555;28;20264;-72
2022/06/15 03:21:40;;;;;;;8.82;3.70;;;;;;;12.68;75.72;101532.63;4947156;28;20035;-71
2022/06/15 03:24:06;;;;;;;8.00;3.20;;;;;;;12.64;75.83;101535.53;4943178;28;20039;-72
2022/06/15 03:26:32;;;;;;;8.30;3.35;;;;;;;12.62;75.84;101528.84;4943904;28;20023;-72
2022/06/15 03:28:58;;;;;;;8.35;3.60;;;;;;;12.60;76.06;101530.78;4941909;28;20256;-72
2022/06/15 03:31:27;;;;;;;11.85;3.38;;;;;;;12.57;76.38;101536.31;4945715;28;20490;-72
2022/06/15 03:33:55;;;;;;;8.15;4.10;;;;;;;12.56;76.29;101535.47;4942444;28;20046;-72
2022/06/15 03:36:23;;;;;;;8.32;3.42;;;;;;;12.54;76.45;101537.41;4943948;28;20425;-71
2022/06/15 03:38:48;;;;;;;15.02;3.67;;;;;;;12.50;76.46;101546.47;4943289;28;20097;-71
2022/06/15 03:41:19;;;;;;;9.57;4.00;;;;;;;12.46;76.89;101542.56;4946250;28;20197;-72
2022/06/15 03:43:47;;;;;;;9.95;3.65;;;;;;;12.44;76.95;101541.88;4944902;28;20031;-71
2022/06/15 03:46:14;;;;;;;8.68;3.42;;;;;;;12.42;77.25;101542.03;4944902;28;20041;-72
2022/06/15 03:48:41;;;;;;;10.15;4.80;;;;;;;12.42;77.39;101547.22;4946400;28;20027;-72
2022/06/15 03:51:07;;;;;;;8.02;3.72;;;;;;;12.41;77.48;101537.81;4946660;28;20105;-71
2022/06/15 03:53:42;;;;;;;8.85;3.97;;;;;;;12.41;77.45;101548.22;4932712;28;20131;-72
2022/06/15 03:56:08;;;;;;;6.70;4.00;;;;;;;12.41;77.17;101545.63;4945460;28;20031;-72
2022/06/15 03:58:34;;;;;;;9.35;4.47;;;;;;;12.40;77.14;101543.97;4946508;28;20260;-72
2022/06/15 04:01:00;;;;;;;8.77;4.18;;;;;;;12.41;77.22;101543.03;4944494;28;20435;-71
2022/06/15 04:03:30;;;;;;;11.68;4.45;;;;;;;12.41;77.31;101540.41;4945684;28;20043;-72
2022/06/15 04:06:12;;;;;;;13.97;4.70;;;;;;;12.42;77.48;101543.81;4945519;28;20431;-72
2022/06/15 04:08:42;;;;;;;9.25;4.13;;;;;;;12.42;77.42;101546.44;4942770;28;20482;-72
2022/06/15 04:14:13;;;;;;;7.38;4.30;;;;;;;12.41;77.32;101543.03;4958326;28;20726;-72
2022/06/15 04:16:43;;;;;;;13.80;4.13;;;;;;;12.41;77.59;101549.97;4943645;28;20497;-72
2022/06/15 04:19:11;;;;;;;9.88;4.85;;;;;;;12.38;77.94;101556.31;4928500;28;20030;-72
2022/06/15 04:21:39;;;;;;;10.25;4.57;;;;;;;12.36;78.05;101547.84;4948174;28;20046;-72
2022/06/15 04:24:11;;;;;;;8.20;3.97;;;;;;;12.38;78.01;101552.91;4944804;28;20033;-72
2022/06/15 04:26:41;;;;;;;12.00;3.70;;;;;;;12.41;78.01;101555.19;4946809;28;20035;-71
2022/06/15 04:29:08;;;;;;;9.35;4.40;;;;;;;12.41;78.17;101553.44;4960843;28;20031;-72
2022/06/15 04:31:34;;;;;;;11.68;4.60;;;;;;;12.43;78.37;101548.03;4946204;28;20039;-72
2022/06/15 04:34:01;;;;;;;10.77;4.00;;;;;;;12.45;78.43;101551.31;4941747;28;20023;-72
2022/06/15 04:36:28;;;;;;;11.02;5.00;;;;;;;12.47;78.67;101549.41;4947464;28;20528;-72
2022/06/15 04:39:00;;;;;;;7.35;3.80;;;;;;;12.51;78.57;101545.53;4945565;28;20054;-72
2022/06/15 04:41:38;;;;;;;11.70;4.57;;;;;;;12.55;78.21;101546.84;4947190;28;20061;-71
2022/06/15 04:44:09;;;;;;;9.68;4.10;;;;;;;12.61;78.22;101546.25;4945291;28;20043;-72
2022/06/15 04:46:37;;;;;;;11.25;4.40;;;;;;;12.62;78.54;101544.44;4946296;28;20070;-72
2022/06/15 04:49:03;;;;;;;10.80;4.13;;;;;;;12.63;78.85;101546.09;4942980;28;20069;-72
2022/06/15 04:51:41;;;;;;;11.25;4.70;;;;;;;12.67;79.19;101544.81;4941500;28;20406;-72
2022/06/15 04:54:09;;;;;;;10.93;4.93;;;;;;;12.71;79.14;101542.75;4939762;28;20031;-72
2022/06/15 04:56:38;;;;;;;11.65;5.53;;;;;;;12.78;79.20;101544.59;4946115;28;20405;-71
2022/06/15 04:59:08;;;;;;;9.00;4.20;;;;;;;12.85;78.99;101545.59;4927816;28;20027;-72
2022/06/15 05:01:34;;;;;;;10.48;4.90;;;;;;;12.95;78.88;101549.91;4942750;28;20051;-72
2022/06/15 05:04:00;;;;;;;8.80;5.00;;;;;;;13.03;79.27;101549.94;4938387;28;20040;-72
2022/06/15 05:06:36;;;;;;;8.32;4.88;;;;;;;13.10;79.78;101561.38;4943954;28;20486;-72
2022/06/15 05:09:05;;;;;;;10.07;4.95;;;;;;;13.18;80.14;101555.41;4940308;28;20137;-72
2022/06/15 05:11:31;;;;;;;12.38;5.20;;;;;;;13.28;80.27;101550.06;4959678;28;20035;-71
2022/06/15 05:13:58;;;;;;;11.40;5.50;;;;;;;13.40;80.00;101557.50;4945400;28;20031;-72
2022/06/15 05:16:27;;;;;;;10.32;4.82;;;;;;;13.52;79.44;101550.22;4928209;28;20428;-72
2022/06/15 05:18:53;;;;;;;13.40;5.90;;;;;;;13.67;78.73;101547.81;4931012;28;20110;-72
2022/06/15 05:21:24;;;;;;;12.68;5.07;;;;;;;13.83;78.57;101558.31;4949026;28;20122;-72
2022/06/15 05:23:50;;;;;;;15.95;5.63;;;;;;;14.01;78.46;101552.97;4946544;28;20027;-72
2022/06/15 05:26:24;;;;;;;16.13;5.55;;;;;;;14.20;76.18;101556.25;4945941;28;20086;-72
2022/06/15 05:28:52;;;;;;;8.38;5.35;;;;;;;14.39;75.24;101549.91;4931944;28;20046;-71
2022/06/15 05:31:21;;;;;;;9.98;5.68;;;;;;;14.58;74.67;101544.41;4932165;28;20027;-71
2022/06/15 05:33:53;;;;;;;12.10;5.57;;;;;;;14.83;74.07;101546.97;4944815;28;20027;-72
2022/06/15 05:36:23;;;;;;;15.00;4.63;;;;;;;15.07;73.67;101548.72;4947636;28;20774;-72
2022/06/15 05:38:48;;;;;;;12.82;5.22;;;;;;;15.30;72.26;101540.97;4946117;28;20081;-72
2022/06/15 05:41:14;;;;;;;22.23;6.68;;;;;;;15.36;70.35;101545.53;4945388;28;20446;-71
2022/06/15 05:46:21;;;;;;;17.00;6.13;;;;;;;15.83;70.49;101540.44;4948292;28;20043;-72
2022/06/15 05:48:48;;;;;;;16.50;6.50;;;;;;;16.02;68.97;101545.22;4928699;28;20059;-72
2022/06/15 05:51:19;;;;;;;18.63;6.78;;;;;;;16.16;68.23;101546.25;4949905;28;20058;-71
2022/06/15 05:53:44;;;;;;;13.52;6.53;;;;;;;16.44;68.10;101550.94;4945485;28;20034;-72
2022/06/15 05:56:10;;;;;;;15.82;6.20;;;;;;;16.67;67.25;101551.75;4947426;28;20031;-71
2022/06/15 05:58:35;;;;;;;14.90;6.30;;;;;;;16.86;65.73;101552.25;4950830;28;20086;-71
2022/06/15 06:01:16;;;;;;;13.75;6.28;;;;;;;16.95;64.46;101550.34;4950649;28;20043;-72
2022/06/15 06:03:42;;;;;;;20.13;5.93;;;;;;;17.11;63.51;101558.03;4944815;28;20032;-71
2022/06/15 06:06:10;;;;;;;17.35;6.95;;;;;;;17.02;62.87;101559.94;4945656;28;20025;-72
2022/06/15 06:08:35;;;;;;;15.50;6.07;;;;;;;17.13;63.66;101556.84;4961330;28;20047;-72
2022/06/15 06:11:01;;;;;;;15.25;6.40;;;;;;;17.57;62.70;101555.19;4946802;28;20042;-71
2022/06/15 06:13:27;;;;;;;16.67;7.22;;;;;;;17.62;62.59;101550.22;4944415;28;20593;-71
2022/06/15 06:15:54;;;;;;;11.73;5.10;;;;;;;18.08;62.23;101541.22;4948024;28;20039;-72
2022/06/15 06:18:19;;;;;;;11.98;6.03;;;;;;;18.49;60.69;101544.00;4945662;28;20035;-72
2022/06/15 06:20:45;;;;;;;16.85;6.22;;;;;;;18.63;61.33;101550.19;4945397;28;20046;-72
2022/06/15 06:23:10;;;;;;;13.25;5.97;;;;;;;18.97;60.52;101547.81;4944874;28;20070;-72
2022/06/15 06:25:36;;;;;;;16.33;6.03;;;;;;;19.36;59.49;101546.34;4945111;28;20032;-72
2022/06/15 06:28:01;;;;;;;10.50;4.82;;;;;;;19.81;58.12;101544.09;4949695;28;20085;-72
2022/06/15 06:30:27;;;;;;;14.63;5.68;;;;;;;20.25;56.28;101545.38;4950274;28;20341;-72
2022/06/15 06:32:52;;;;;;;9.80;5.30;;;;;;;20.12;56.14;101548.81;4933112;28;20039;-72
2022/06/15 06:35:18;;;;;;;10.32;5.20;;;;;;;20.54;55.46;101552.06;4946425;28;20078;-72
2022/06/15 06:37:44;;;;;;;14.48;4.20;;;;;;;20.74;54.68;101544.16;4948160;28;20039;-72
2022/06/15 06:40:13;;;;;;;13.32;5.75;;;;;;;20.93;54.21;101552.25;4929213;28;20027;-72
2022/06/15 06:42:38;;;;;;;15.43;5.75;;;;;;;21.20;54.00;101543.22;4947117;28;20046;-72
2022/06/15 06:45:05;;;;;;;18.02;6.20;;;;;;;21.30;52.63;101555.94;4930074;28;20039;-72
2022/06/15 06:47:30;;;;;;;17.73;6.63;;;;;;;21.53;52.53;101550.22;4945843;28;20031;-72
2022/06/15 06:49:56;;;;;;;14.93;5.93;;;;;;;21.93;51.73;101546.53;4947929;28;20035;-71
2022/06/15 06:52:21;;;;;;;17.10;6.25;;;;;;;22.10;51.59;101555.56;4948039;28;20486;-72
2022/06/15 06:54:47;;;;;;;21.90;9.63;;;;;;;22.54;50.15;101555.63;4943722;28;20219;-72
2022/06/15 06:57:12;;;;;;;23.77;7.03;;;;;;;22.73;48.96;101546.72;4943756;28;20039;-72
2022/06/15 06:59:38;;;;;;;20.10;6.50;;;;;;;22.72;48.46;101547.72;4948666;28;20054;-72
2022/06/15 07:02:04;;;;;;;13.80;5.72;;;;;;;22.85;48.43;101554.72;4947077;28;20035;-72
2022/06/15 07:04:30;;;;;;;15.02;6.15;;;;;;;23.08;47.43;101554.09;4947085;28;20046;-72
2022/06/15 07:06:57;;;;;;;15.75;5.78;;;;;;;23.38;47.15;101552.53;4949462;28;20047;-72
2022/06/15 07:09:23;;;;;;;17.13;6.20;;;;;;;23.60;47.16;101552.81;4949555;28;20101;-72
2022/06/15 07:11:48;;;;;;;16.27;6.50;;;;;;;24.00;46.86;101550.44;4948708;28;20031;-72
2022/06/15 07:14:14;;;;;;;18.00;5.53;;;;;;;24.01;46.20;101552.06;4949794;28;20410;-72
2022/06/15 07:16:41;;;;;;;14.10;5.22;;;;;;;24.36;45.44;101539.91;4943079;28;20385;-72
2022/06/15 07:19:07;;;;;;;19.63;6.00;;;;;;;24.13;44.97;101546.78;4946127;28;20057;-72
2022/06/15 07:21:33;;;;;;;18.50;5.97;;;;;;;24.29;45.49;101546.09;4950403;28;20486;-72
2022/06/15 07:23:59;;;;;;;18.45;5.78;;;;;;;24.20;45.19;101552.75;4931267;28;20027;-72
2022/06/15 07:26:32;;;;;;;15.85;6.18;;;;;;;24.42;44.73;101552.22;4931099;29;20070;-72
2022/06/15 07:28:57;;;;;;;;;;;;;;;24.76;44.34;101544.50;4950232;28;20442;-72
2022/06/15 07:31:24;;;;;;;16.63;5.47;;;;;;;24.70;44.62;101550.75;4948683;28;19918;-72
2022/06/15 07:33:50;;;;;;;21.38;6.40;;;;;;;24.73;44.38;101548.41;4945808;28;20023;-72
2022/06/15 07:36:15;;;;;;;16.83;5.55;;;;;;;25.09;43.77;101548.34;4948144;28;20486;-72
2022/06/15 07:38:41;;;;;;;13.05;5.00;;;;;;;25.58;43.25;101556.72;4949824;28;20039;-72
2022/06/15 07:41:06;;;;;;;18.08;5.57;;;;;;;25.82;41.43;101552.94;4947530;28;20066;-72
2022/06/15 07:43:32;;;;;;;14.40;5.53;;;;;;;25.97;41.92;101552.38;4958726;28;20387;-72
2022/06/15 07:45:57;;;;;;;13.77;5.68;;;;;;;26.11;40.93;101549.44;4945504;28;20499;-72
2022/06/15 07:51:07;;;;;;;15.90;6.22;;;;;;;26.01;40.86;101544.75;4946332;28;20038;-72
2022/06/15 07:53:33;;;;;;;17.55;5.18;;;;;;;26.22;41.35;101546.69;4946521;28;20115;-72
2022/06/15 07:55:58;;;;;;;15.68;5.55;;;;;;;26.41;40.82;101546.44;4947813;28;20554;-72
2022/06/15 07:58:24;;;;;;;18.08;6.07;;;;;;;26.58;40.11;101544.53;4947748;28;20039;-72
2022/06/15 08:00:50;;;;;;;14.55;5.13;;;;;;;26.30;40.33;101552.66;4942851;28;20042;-72
2022/06/15 08:03:17;;;;;;;15.93;5.07;;;;;;;26.16;39.87;101547.66;4944002;28;20039;-72
2022/06/15 08:05:46;;;;;;;17.10;5.18;;;;;;;25.85;40.58;101551.66;4944270;28;20109;-70
2022/06/15 08:08:16;;;;;;;13.98;4.55;;;;;;;25.96;40.42;101542.81;4944240;28;20031;-70
2022/06/15 08:10:42;;;;;;;15.80;5.03;;;;;;;26.33;40.31;101552.94;4944615;28;20043;-70
2022/06/15 08:13:08;;;;;;;13.55;5.57;;;;;;;26.23;39.89;101545.63;4947636;28;20401;-70
2022/06/15 08:15:34;;;;;;;12.85;5.95;;;;;;;26.13;39.34;101548.16;4941785;28;20502;-70
2022/06/15 08:18:08;;;;;;;15.20;4.93;;;;;;;26.55;40.17;101553.00;4946306;28;20035;-70
2022/06/15 08:20:37;;;;;;;13.43;5.60;;;;;;;26.72;39.05;101546.88;4957932;28;20089;-70
2022/06/15 08:23:11;;;;;;;19.60;5.30;;;;;;;26.87;38.69;101543.59;4949926;28;20035;-70
2022/06/15 08:25:47;;;;;;;22.00;5.72;;;;;;;26.77;38.37;101541.63;4947070;28;20039;-70
2022/06/15 08:28:15;;;;;;;12.85;4.20;;;;;;;26.86;38.88;101540.16;4948419;28;20042;-70
2022/06/15 08:30:40;;;;;;;17.55;4.65;;;;;;;26.47;39.26;101545.44;4950605;28;20038;-70
2022/06/15 08:33:08;;;;;;;18.98;4.47;;;;;;;26.68;39.09;101546.56;4950020;28;20404;-70
2022/06/15 08:35:36;;;;;;;13.02;4.05;;;;;;;26.74;38.19;101534.94;4951176;28;20046;-71
2022/06/15 08:38:06;;;;;;;11.48;3.85;;;;;;;27.03;38.95;101541.91;4949054;28;20032;-71
2022/06/15 08:40:41;;;;;;;9.25;3.50;;;;;;;27.21;38.58;101536.28;4948594;28;20504;-71
2022/06/15 08:43:34;;;;;;;8.90;4.05;;;;;;;27.71;37.12;101540.53;4944164;28;20122;-71
2022/06/15 08:46:14;;;;;;;14.25;3.70;;;;;;;27.54;37.15;101531.84;4948125;28;20035;-71
2022/06/15 08:49:01;;;;;;;14.93;3.25;;;;;;;27.86;36.98;101537.19;4945039;28;20043;-71
2022/06/15 08:51:44;;;;;;;13.57;4.03;;;;;;;27.79;34.61;101535.81;4950471;28;20038;-70
2022/06/15 08:54:20;;;;;;;9.38;3.40;;;;;;;27.42;35.02;101539.97;4949100;28;20046;-71
2022/06/15 08:56:51;;;;;;;17.25;4.15;;;;;;;27.04;35.75;101536.34;4965694;28;20560;-71
2022/06/15 08:59:41;;;;;;;10.88;3.45;;;;;;;27.26;36.37;101532.91;4953133;28;20513;-71
2022/06/15 09:02:28;;;;;;;12.70;4.05;;;;;;;27.18;35.33;101532.25;4962879;28;20042;-71
2022/06/15 09:05:39;;;;;;;9.23;3.33;;;;;;;27.14;36.43;101535.66;4950573;28;20062;-71
2022/06/15 09:08:32;;;;;;;13.68;3.80;;;;;;;26.82;36.00;101538.22;4938721;28;21327;-70
2022/06/15 09:11:23;;;;;;;13.57;3.40;;;;;;;26.76;36.61;101540.81;4946877;28;20509;-71
2022/06/15 09:14:07;;;;;;;9.18;3.25;;;;;;;27.49;36.48;101537.13;4945930;28;21408;-71
2022/06/15 09:16:58;;;;;;;11.90;3.20;;;;;;;27.45;35.77;101536.03;4949265;28;20023;-70
2022/06/15 09:19:29;;;;;;;10.35;2.90;;;;;;;27.15;35.37;101534.63;4947569;28;20035;-70
2022/06/15 09:22:04;;;;;;;9.20;2.90;;;;;;;27.36;36.27;101533.78;4951385;28;20047;-71
2022/06/15 09:24:40;;;;;;;13.27;2.85;;;;;;;27.53;34.63;101538.22;4946418;28;20119;-71
2022/06/15 09:27:15;;;;;;;17.40;4.53;;;;;;;27.35;33.39;101537.53;4936538;28;20070;-71
2022/06/15 09:29:50;;;;;;;10.10;3.00;;;;;;;26.99;35.39;101536.28;4959555;28;20039;-71
2022/06/15 09:32:21;;;;;;;23.15;4.32;;;;;;;27.30;35.79;101537.47;4942499;28;20043;-71
2022/06/15 09:35:04;;;;;;;14.30;3.30;;;;;;;27.23;34.39;101546.69;4958324;28;20089;-71
2022/06/15 09:37:35;;;;;;;9.80;3.00;;;;;;;27.27;34.83;101537.97;4948413;28;20465;-71
2022/06/15 09:40:02;;;;;;;12.80;2.88;;;;;;;27.37;34.48;101540.75;4944096;28;20110;-71
2022/06/15 09:43:02;;;;;;;9.45;3.40;;;;;;;27.68;33.69;101526.91;4929861;29;20450;-71
2022/06/15 09:45:43;;;;;;;15.13;3.70;;;;;;;27.73;35.75;101532.28;4944281;28;20051;-71
2022/06/15 09:48:31;;;;;;;9.48;2.80;;;;;;;27.81;35.42;101536.34;4948539;28;20042;-71
2022/06/15 09:51:06;;;;;;;12.00;3.33;;;;;;;28.06;34.79;101541.88;4929762;28;20056;-71
2022/06/15 09:53:50;;;;;;;13.20;3.50;;;;;;;27.81;33.98;101528.34;4947261;28;20039;-71
2022/06/15 09:56:19;;;;;;;15.30;4.22;;;;;;;28.19;33.77;101527.31;4942152;28;20522;-71
2022/06/15 09:58:57;;;;;;;14.98;3.60;;;;;;;27.98;34.35;101522.91;4950226;28;20042;-71
2022/06/15 10:01:26;;;;;;;8.70;2.47;;;;;;;28.00;35.31;101526.13;4945938;28;20133;-72
2022/06/15 10:03:54;;;;;;;7.13;2.67;;;;;;;28.13;35.04;101523.81;4962522;28;20031;-71
2022/06/15 10:06:33;;;;;;;6.95;2.92;;;;;;;28.19;34.62;101526.53;4930683;28;20133;-71
2022/06/15 10:09:01;;;;;;;10.65;3.47;;;;;;;28.14;34.12;101521.94;4949007;28;20049;-71
2022/06/15 10:11:44;;;;;;;6.70;2.80;;;;;;;27.79;35.18;101525.16;4946256;28;20094;-71
2022/06/15 10:14:30;;;;;;;11.52;2.83;;;;;;;28.06;35.78;101519.78;4946855;28;20464;-71
2022/06/15 10:17:03;;;;;;;7.55;2.40;;;;;;;28.20;34.88;101515.59;4946527;28;20050;-71
2022/06/15 10:19:34;;;;;;;10.13;2.83;;;;;;;28.08;33.88;101515.78;4947778;28;20486;-70
2022/06/15 10:22:05;;;;;;;11.02;2.88;;;;;;;28.09;33.78;101511.28;4961842;28;20035;-71
2022/06/15 10:24:36;;;;;;;11.07;2.78;;;;;;;28.04;34.75;101521.88;4959653;28;20119;-71
2022/06/15 10:27:21;;;;;;;8.77;2.75;;;;;;;27.98;35.13;101518.38;4944084;28;20031;-71
2022/06/15 10:30:12;;;;;;;9.88;3.30;;;;;;;27.97;35.32;101527.44;4963643;28;20031;-71
2022/06/15 10:32:57;;;;;;;9.70;2.35;;;;;;;28.05;34.83;101510.16;4937526;28;20066;-71
2022/06/15 10:35:23;;;;;;;11.77;3.05;;;;;;;28.06;33.97;101506.44;4960879;28;20058;-71
2022/06/15 10:37:58;;;;;;;8.48;2.22;;;;;;;28.15;34.09;101503.03;4945425;28;20058;-71
2022/06/15 10:40:31;;;;;;;12.50;3.25;;;;;;;28.08;34.72;101507.00;4945634;28;20158;-71
2022/06/15 10:43:27;;;;;;;9.60;2.50;;;;;;;28.81;34.20;101501.00;4949036;28;20019;-71
2022/06/15 10:45:52;;;;;;;8.40;2.00;;;;;;;28.35;32.66;101496.25;4942037;28;20062;-71
2022/06/15 10:48:30;;;;;;;7.88;2.58;;;;;;;28.51;33.98;101494.44;4945059;28;20478;-70
2022/06/15 10:51:02;;;;;;;6.80;2.40;;;;;;;28.65;33.55;101486.78;4942467;28;20134;-71
2022/06/15 10:53:42;;;;;;;6.38;2.53;;;;;;;28.63;32.98;101489.72;4944175;28;20106;-71
2022/06/15 11:02:25;;;;;;;6.07;2.03;;;;;;;28.42;33.59;101480.00;4943184;28;20035;-71
2022/06/15 11:05:00;;;;;;;9.60;2.63;;;;;;;28.79;33.19;101473.78;4944416;28;20031;-71
2022/06/15 11:07:47;;;;;;;11.32;2.30;;;;;;;28.87;31.65;101474.03;4947493;28;20118;-71
2022/06/15 11:10:26;;;;;;;6.57;2.85;;;;;;;28.80;31.95;101483.38;4945552;28;20538;-71
2022/06/15 11:13:05;;;;;;;5.68;1.92;;;;;;;28.30;33.48;101480.19;4943883;28;20058;-71
2022/06/15 11:18:37;;;;;;;7.35;2.70;;;;;;;28.63;33.09;101475.56;4946360;28;20049;-71
2022/06/15 11:21:11;;;;;;;9.07;2.60;;;;;;;28.89;33.00;101473.78;4948535;28;20042;-71
2022/06/15 11:23:46;;;;;;;9.98;2.70;;;;;;;28.98;32.12;101468.75;4928117;28;20031;-71
2022/06/15 11:29:53;;;;;;;6.03;2.25;;;;;;;29.06;30.97;101471.69;4943788;28;20097;-71
2022/06/15 11:32:43;;;;;;;11.63;2.58;;;;;;;28.87;33.32;101463.38;4942186;28;20054;-71
2022/06/15 11:35:11;;;;;;;6.40;2.60;;;;;;;29.20;33.61;101458.69;4945913;28;20458;-71
2022/06/15 11:37:59;;;;;;;16.35;2.70;;;;;;;29.13;32.33;101455.47;4927661;28;20090;-71
2022/06/15 11:40:43;;;;;;;6.63;2.13;;;;;;;29.17;32.12;101456.53;4945677;28;20059;-71
2022/06/15 11:43:21;;;;;;;11.57;2.58;;;;;;;29.06;32.19;101446.88;4946816;28;20142;-71
2022/06/15 11:46:12;;;;;;;10.68;2.83;;;;;;;29.09;31.93;101443.69;4942714;28;20465;-71
2022/06/15 11:49:02;;;;;;;8.00;2.63;;;;;;;29.24;32.74;101450.94;4945046;28;20051;-72
2022/06/15 11:51:41;;;;;;;14.43;5.88;;;;;;;29.13;30.72;101447.44;4943154;28;20129;-71
2022/06/15 11:54:49;;;;;;;13.88;4.90;;;;;;;28.98;32.75;101444.72;4944183;28;20047;-71
2022/06/15 11:57:23;;;;;;;11.45;2.45;;;;;;;29.23;33.23;101452.78;4935931;28;20122;-71
2022/06/15 12:00:08;;;;;;;11.13;2.88;;;;;;;29.00;32.64;101451.41;4925350;28;20470;-72
2022/06/15 12:02:48;;;;;;;7.82;2.75;;;;;;;28.91;32.60;101448.47;4947915;28;20063;-71
2022/06/15 12:05:16;;;;;;;7.90;2.70;;;;;;;29.19;32.42;101441.03;4943387;28;20039;-71
2022/06/15 12:08:15;;;;;;;13.57;2.42;;;;;;;29.52;32.68;101436.25;4927492;28;20039;-72